Time;durP1;ratioP1;P1;durP2;ratioP2;P2;SDS_P1;SDS_P2;PMS_P1;PMS_P2;Temp;Humidity;BMP_temperature;BMP_pressure;BME280_temperature;BME280_humidity;BME280_pressure;Samples;Min_cycle;Max_cycle;Signal;HPM_P1;HPM_P2
2023/03/03 00:01:35;;;;;;;7.10;5.73;;;;;;;;;;5063344;28;20284;-74
2023/03/03 00:04:03;;;;;;;7.90;5.83;;;;;;;;;;5060559;28;20294;-74
2023/03/03 00:06:30;;;;;;;7.03;5.97;;;;;;;;;;5064150;28;20210;-74
2023/03/03 00:08:57;;;;;;;6.10;5.47;;;;;;;;;;5058360;28;20203;-74
2023/03/03 00:11:26;;;;;;;6.80;5.53;;;;;;;;;;5062808;28;20200;-74
2023/03/03 00:13:53;;;;;;;5.93;5.33;;;;;;;;;;5058615;28;20233;-74
2023/03/03 00:16:23;;;;;;;7.17;5.83;;;;;;;;;;5056962;28;20208;-74
2023/03/03 00:18:51;;;;;;;7.60;6.27;;;;;;;;;;5059413;28;20294;-74
2023/03/03 00:21:27;;;;;;;8.53;5.43;;;;;;;;;;5065574;28;20238;-74
2023/03/03 00:23:55;;;;;;;7.93;5.37;;;;;;;;;;5064927;28;20207;-74
2023/03/03 00:26:23;;;;;;;7.90;5.70;;;;;;;;;;5060518;28;20213;-75
2023/03/03 00:28:53;;;;;;;7.23;5.20;;;;;;;;;;5063319;28;20297;-74
2023/03/03 00:31:22;;;;;;;6.27;5.50;;;;;;;;;;5063648;28;20277;-74
2023/03/03 00:33:53;;;;;;;6.40;5.53;;;;;;;;;;5061648;28;20209;-74
2023/03/03 00:36:30;;;;;;;6.30;5.13;;;;;;;;;;5058054;28;20283;-75
2023/03/03 00:38:58;;;;;;;6.20;5.60;;;;;;;;;;5057024;28;20215;-74
2023/03/03 00:41:27;;;;;;;6.77;5.10;;;;;;;;;;5060398;28;20230;-74
2023/03/03 00:43:55;;;;;;;5.83;5.23;;;;;;;;;;5060631;28;20215;-74
2023/03/03 00:46:24;;;;;;;8.47;5.73;;;;;;;;;;5060497;28;20214;-74
2023/03/03 00:48:51;;;;;;;6.10;5.47;;;;;;;;;;5055194;28;20202;-74
2023/03/03 00:51:26;;;;;;;7.67;5.53;;;;;;;;;;5059833;28;20195;-75
2023/03/03 00:53:54;;;;;;;6.07;5.40;;;;;;;;;;5064514;28;20207;-74
2023/03/03 00:56:21;;;;;;;7.07;5.30;;;;;;;;;;5062525;28;20298;-75
2023/03/03 00:58:48;;;;;;;7.30;6.13;;;;;;;;;;5064185;28;20218;-75
2023/03/03 01:01:17;;;;;;;7.80;5.80;;;;;;;;;;5063950;28;20210;-75
2023/03/03 01:03:44;;;;;;;6.83;5.43;;;;;;;;;;5062244;28;20243;-75
2023/03/03 01:06:12;;;;;;;7.33;5.57;;;;;;;;;;5056114;28;20203;-75
2023/03/03 01:08:39;;;;;;;6.10;5.20;;;;;;;;;;5057737;28;20211;-75
2023/03/03 01:11:08;;;;;;;5.90;5.30;;;;;;;;;;5058096;28;20211;-75
2023/03/03 01:13:36;;;;;;;8.07;5.40;;;;;;;;;;5058380;28;20209;-75
2023/03/03 01:16:04;;;;;;;5.87;5.07;;;;;;;;;;5054537;28;20206;-75
2023/03/03 01:18:32;;;;;;;6.33;5.53;;;;;;;;;;5055763;28;20205;-75
2023/03/03 01:21:00;;;;;;;6.63;5.30;;;;;;;;;;5058521;28;20218;-75
2023/03/03 01:23:28;;;;;;;7.43;5.30;;;;;;;;;;5060534;28;20239;-75
2023/03/03 01:25:55;;;;;;;6.43;5.33;;;;;;;;;;5056222;28;20206;-75
2023/03/03 01:28:22;;;;;;;8.20;5.03;;;;;;;;;;5059435;28;20203;-75
2023/03/03 01:30:49;;;;;;;7.37;5.40;;;;;;;;;;5057173;28;20206;-75
2023/03/03 01:33:16;;;;;;;6.57;5.30;;;;;;;;;;5062362;28;20199;-75
2023/03/03 01:35:46;;;;;;;6.93;5.50;;;;;;;;;;5060749;28;20213;-75
2023/03/03 01:38:13;;;;;;;8.20;4.57;;;;;;;;;;5057817;28;20207;-76
2023/03/03 01:40:40;;;;;;;6.53;5.40;;;;;;;;;;5056988;28;20233;-75
2023/03/03 01:43:07;;;;;;;5.63;4.77;;;;;;;;;;5055775;28;20204;-75
2023/03/03 01:45:43;;;;;;;6.33;4.90;;;;;;;;;;5061496;28;20207;-75
2023/03/03 01:48:11;;;;;;;6.47;5.03;;;;;;;;;;5063218;28;20207;-75
2023/03/03 01:50:42;;;;;;;5.97;4.90;;;;;;;;;;5065081;28;20203;-75
2023/03/03 01:53:13;;;;;;;6.53;5.10;;;;;;;;;;5061304;28;20203;-75
2023/03/03 01:55:41;;;;;;;5.73;5.10;;;;;;;;;;5060949;28;20262;-75
2023/03/03 01:58:11;;;;;;;5.37;4.87;;;;;;;;;;5062322;28;20208;-75
2023/03/03 02:00:39;;;;;;;5.60;5.00;;;;;;;;;;5066616;28;20222;-75
2023/03/03 02:03:06;;;;;;;6.13;4.80;;;;;;;;;;5067542;28;20283;-75
2023/03/03 02:05:34;;;;;;;7.23;5.10;;;;;;;;;;5059623;28;20202;-75
2023/03/03 02:08:01;;;;;;;5.70;4.73;;;;;;;;;;5060113;28;20203;-75
2023/03/03 02:10:31;;;;;;;6.57;5.30;;;;;;;;;;5061700;28;20202;-75
2023/03/03 02:12:59;;;;;;;6.67;5.03;;;;;;;;;;5062060;28;20195;-75
2023/03/03 02:15:27;;;;;;;6.87;5.30;;;;;;;;;;5056845;28;20204;-75
2023/03/03 02:17:55;;;;;;;5.93;5.30;;;;;;;;;;5064802;28;20211;-75
2023/03/03 02:20:36;;;;;;;7.40;5.00;;;;;;;;;;5064624;28;20231;-75
2023/03/03 02:23:08;;;;;;;6.37;5.10;;;;;;;;;;5064131;28;20268;-75
2023/03/03 02:25:41;;;;;;;6.10;5.50;;;;;;;;;;5057958;28;20199;-75
2023/03/03 02:28:09;;;;;;;6.57;5.00;;;;;;;;;;5062258;28;20207;-75
2023/03/03 02:30:38;;;;;;;6.37;5.20;;;;;;;;;;5058579;28;20202;-75
2023/03/03 02:33:06;;;;;;;5.60;5.00;;;;;;;;;;5057887;28;20195;-75
2023/03/03 02:35:34;;;;;;;6.17;4.47;;;;;;;;;;5063370;28;20203;-75
2023/03/03 02:38:08;;;;;;;6.57;4.87;;;;;;;;;;5061157;28;20209;-75
2023/03/03 02:40:37;;;;;;;5.13;4.67;;;;;;;;;;5062791;28;20232;-75
2023/03/03 02:43:05;;;;;;;8.50;4.67;;;;;;;;;;5057209;28;20203;-75
2023/03/03 02:45:34;;;;;;;6.83;5.07;;;;;;;;;;5060595;28;20199;-75
2023/03/03 02:48:01;;;;;;;5.77;4.70;;;;;;;;;;5057150;28;20208;-75
2023/03/03 02:50:28;;;;;;;6.73;5.10;;;;;;;;;;5060905;28;20210;-75
2023/03/03 02:52:55;;;;;;;7.70;5.07;;;;;;;;;;5060219;28;20205;-75
2023/03/03 02:55:22;;;;;;;6.07;4.73;;;;;;;;;;5061992;28;20203;-75
2023/03/03 02:57:49;;;;;;;5.03;4.53;;;;;;;;;;5061289;28;20199;-75
2023/03/03 03:00:17;;;;;;;6.30;5.00;;;;;;;;;;5058429;28;20213;-75
2023/03/03 03:02:45;;;;;;;7.07;4.80;;;;;;;;;;5060582;28;20210;-75
2023/03/03 03:05:12;;;;;;;5.83;4.90;;;;;;;;;;5064790;28;20208;-75
2023/03/03 03:07:40;;;;;;;6.67;5.13;;;;;;;;;;5067057;28;20205;-75
2023/03/03 03:10:07;;;;;;;6.23;5.23;;;;;;;;;;5056676;28;20199;-75
2023/03/03 03:12:34;;;;;;;6.50;5.10;;;;;;;;;;5064498;28;20217;-75
2023/03/03 03:15:01;;;;;;;7.00;4.90;;;;;;;;;;5058317;28;20203;-75
2023/03/03 03:17:29;;;;;;;5.83;4.67;;;;;;;;;;5055969;28;20195;-75
2023/03/03 03:19:57;;;;;;;5.10;4.60;;;;;;;;;;5061396;28;20203;-75
2023/03/03 03:22:24;;;;;;;5.70;4.73;;;;;;;;;;5059253;28;20229;-75
2023/03/03 03:24:52;;;;;;;4.83;4.30;;;;;;;;;;5058448;28;20199;-75
2023/03/03 03:27:19;;;;;;;5.37;4.80;;;;;;;;;;5056315;28;20270;-75
2023/03/03 03:29:46;;;;;;;6.13;5.07;;;;;;;;;;5059411;28;20203;-75
2023/03/03 03:32:13;;;;;;;6.47;5.37;;;;;;;;;;5059509;28;20201;-75
2023/03/03 03:34:40;;;;;;;5.30;4.73;;;;;;;;;;5062873;28;20203;-75
2023/03/03 03:37:09;;;;;;;5.20;4.70;;;;;;;;;;5052515;28;20202;-75
2023/03/03 03:39:36;;;;;;;6.03;4.90;;;;;;;;;;5060223;28;20207;-75
2023/03/03 03:42:03;;;;;;;6.63;5.47;;;;;;;;;;5057373;28;20323;-75
2023/03/03 03:44:30;;;;;;;6.87;5.07;;;;;;;;;;5058971;28;20199;-75
2023/03/03 03:46:57;;;;;;;5.20;4.57;;;;;;;;;;5061877;28;20205;-75
2023/03/03 03:49:24;;;;;;;6.10;5.07;;;;;;;;;;5060862;28;20225;-75
2023/03/03 03:51:51;;;;;;;6.60;5.13;;;;;;;;;;5060117;28;20199;-75
2023/03/03 03:54:20;;;;;;;5.13;4.57;;;;;;;;;;5063395;28;20199;-75
2023/03/03 03:56:47;;;;;;;7.00;4.97;;;;;;;;;;5058930;28;20317;-75
2023/03/03 03:59:14;;;;;;;5.37;4.87;;;;;;;;;;5056703;28;20199;-75
2023/03/03 04:01:41;;;;;;;7.23;5.57;;;;;;;;;;5059543;28;20227;-75
2023/03/03 04:04:09;;;;;;;7.77;5.17;;;;;;;;;;5059911;28;20228;-75
2023/03/03 04:06:36;;;;;;;5.97;5.27;;;;;;;;;;5059405;28;20209;-76
2023/03/03 04:09:03;;;;;;;6.83;5.07;;;;;;;;;;5059474;28;20207;-75
2023/03/03 04:11:31;;;;;;;7.00;5.27;;;;;;;;;;5055636;28;20202;-75
2023/03/03 04:13:59;;;;;;;6.43;4.77;;;;;;;;;;5056631;28;20214;-75
2023/03/03 04:16:26;;;;;;;8.87;5.73;;;;;;;;;;5050814;28;20203;-75
2023/03/03 04:18:53;;;;;;;6.50;5.10;;;;;;;;;;5057229;28;20409;-75
2023/03/03 04:21:20;;;;;;;7.47;5.33;;;;;;;;;;5056084;28;20222;-75
2023/03/03 04:23:47;;;;;;;7.73;5.57;;;;;;;;;;5058349;28;20209;-75
2023/03/03 04:26:14;;;;;;;6.57;5.73;;;;;;;;;;5057443;28;20203;-75
2023/03/03 04:28:43;;;;;;;6.13;5.13;;;;;;;;;;5055625;28;20204;-75
2023/03/03 04:31:10;;;;;;;6.00;5.23;;;;;;;;;;5058084;28;20195;-75
2023/03/03 04:33:37;;;;;;;5.70;5.10;;;;;;;;;;5056638;28;20295;-75
2023/03/03 04:36:05;;;;;;;6.47;5.23;;;;;;;;;;5057893;28;20205;-75
2023/03/03 04:38:32;;;;;;;8.17;5.20;;;;;;;;;;5065107;28;20209;-75
2023/03/03 04:40:59;;;;;;;6.33;4.97;;;;;;;;;;5058472;28;20206;-75
2023/03/03 04:43:26;;;;;;;7.13;5.20;;;;;;;;;;5060669;28;20298;-75
2023/03/03 04:45:55;;;;;;;7.83;5.50;;;;;;;;;;5060422;28;20207;-75
2023/03/03 04:48:22;;;;;;;6.37;5.67;;;;;;;;;;5061718;28;20206;-75
2023/03/03 04:50:49;;;;;;;7.07;5.77;;;;;;;;;;5059573;28;20315;-75
2023/03/03 04:53:16;;;;;;;7.80;5.60;;;;;;;;;;5059757;28;20196;-75
2023/03/03 04:55:43;;;;;;;7.57;5.87;;;;;;;;;;5056358;28;20224;-75
2023/03/03 04:58:10;;;;;;;8.97;6.07;;;;;;;;;;5055233;28;20203;-75
2023/03/03 05:00:38;;;;;;;8.17;5.67;;;;;;;;;;5056186;28;20208;-75
2023/03/03 05:03:07;;;;;;;7.13;5.77;;;;;;;;;;5059926;28;20227;-75
2023/03/03 05:05:34;;;;;;;7.17;6.00;;;;;;;;;;5057529;28;20200;-75
2023/03/03 05:08:01;;;;;;;9.77;6.00;;;;;;;;;;5059697;28;20204;-75
2023/03/03 05:10:28;;;;;;;6.90;5.57;;;;;;;;;;5060422;28;20196;-75
2023/03/03 05:12:55;;;;;;;8.13;6.20;;;;;;;;;;5061704;28;20213;-75
2023/03/03 05:15:23;;;;;;;7.07;6.03;;;;;;;;;;5057899;28;20203;-75
2023/03/03 05:17:52;;;;;;;9.00;6.83;;;;;;;;;;5057384;28;20207;-75
2023/03/03 05:20:20;;;;;;;8.60;6.37;;;;;;;;;;5067685;28;20301;-75
2023/03/03 05:22:48;;;;;;;8.10;6.30;;;;;;;;;;5061921;28;20251;-76
2023/03/03 05:25:15;;;;;;;7.33;6.53;;;;;;;;;;5058520;28;20203;-75
2023/03/03 05:27:42;;;;;;;7.07;6.23;;;;;;;;;;5058572;28;20237;-75
2023/03/03 05:30:10;;;;;;;9.00;7.10;;;;;;;;;;5062143;28;20215;-75
2023/03/03 05:32:37;;;;;;;7.60;6.33;;;;;;;;;;5060484;28;20213;-75
2023/03/03 05:35:05;;;;;;;7.13;6.43;;;;;;;;;;5055981;28;20208;-75
2023/03/03 05:37:33;;;;;;;8.50;6.80;;;;;;;;;;5063665;28;20202;-75
2023/03/03 05:40:00;;;;;;;8.70;7.07;;;;;;;;;;5056996;28;20222;-74
2023/03/03 05:42:27;;;;;;;8.60;6.53;;;;;;;;;;5057279;28;20314;-75
2023/03/03 05:44:55;;;;;;;8.37;7.17;;;;;;;;;;5057435;28;20206;-75
2023/03/03 05:47:22;;;;;;;9.77;7.13;;;;;;;;;;5061024;28;20221;-75
2023/03/03 05:49:49;;;;;;;9.23;7.73;;;;;;;;;;5058253;28;20204;-75
2023/03/03 05:52:16;;;;;;;9.37;8.00;;;;;;;;;;5063633;28;20285;-75
2023/03/03 05:54:44;;;;;;;9.60;7.60;;;;;;;;;;5061971;28;20199;-76
2023/03/03 05:57:12;;;;;;;9.27;7.27;;;;;;;;;;5059013;28;20206;-75
2023/03/03 05:59:39;;;;;;;9.57;7.60;;;;;;;;;;5060537;28;20213;-75
2023/03/03 06:02:06;;;;;;;9.70;8.23;;;;;;;;;;5059422;28;20225;-76
2023/03/03 06:04:33;;;;;;;9.57;8.13;;;;;;;;;;5060697;28;20204;-75
2023/03/03 06:07:00;;;;;;;10.33;8.50;;;;;;;;;;5061311;28;20195;-75
2023/03/03 06:09:27;;;;;;;10.43;8.67;;;;;;;;;;5061601;28;20249;-75
2023/03/03 06:11:56;;;;;;;9.60;8.10;;;;;;;;;;5054973;28;20204;-75
2023/03/03 06:14:23;;;;;;;11.83;9.57;;;;;;;;;;5064530;28;20209;-75
2023/03/03 06:16:50;;;;;;;13.23;9.43;;;;;;;;;;5061160;28;20214;-75
2023/03/03 06:19:17;;;;;;;11.73;9.30;;;;;;;;;;5059341;28;20301;-75
2023/03/03 06:21:45;;;;;;;13.07;9.43;;;;;;;;;;5058546;28;20222;-75
2023/03/03 06:24:12;;;;;;;10.87;8.50;;;;;;;;;;5055815;28;20218;-75
2023/03/03 06:26:39;;;;;;;12.93;9.30;;;;;;;;;;5063294;28;20213;-75
2023/03/03 06:29:08;;;;;;;15.83;10.37;;;;;;;;;;5058930;28;20206;-75
2023/03/03 06:31:35;;;;;;;13.17;9.77;;;;;;;;;;5065371;28;20198;-75
2023/03/03 06:34:02;;;;;;;11.83;9.30;;;;;;;;;;5055516;28;20205;-75
2023/03/03 06:36:29;;;;;;;12.23;9.97;;;;;;;;;;5048783;28;20195;-75
2023/03/03 06:38:57;;;;;;;13.93;10.67;;;;;;;;;;5061883;28;20196;-75
2023/03/03 06:41:24;;;;;;;12.27;9.37;;;;;;;;;;5059253;28;20302;-75
2023/03/03 06:43:52;;;;;;;13.90;10.10;;;;;;;;;;5059737;28;20255;-75
2023/03/03 06:46:20;;;;;;;12.57;10.17;;;;;;;;;;5060567;28;20282;-74
2023/03/03 06:48:47;;;;;;;13.30;10.87;;;;;;;;;;5061874;28;20231;-75
2023/03/03 06:51:20;;;;;;;14.70;12.20;;;;;;;;;;5059378;28;20294;-74
2023/03/03 06:53:49;;;;;;;16.40;12.77;;;;;;;;;;5055745;28;20218;-75
2023/03/03 06:56:17;;;;;;;18.10;13.40;;;;;;;;;;5058248;28;20204;-75
2023/03/03 06:58:44;;;;;;;17.73;13.23;;;;;;;;;;5064058;28;20210;-75
2023/03/03 07:01:15;;;;;;;15.57;12.00;;;;;;;;;;5063200;28;20285;-75
2023/03/03 07:03:44;;;;;;;14.20;11.70;;;;;;;;;;5062969;28;20310;-75
2023/03/03 07:06:17;;;;;;;15.93;12.23;;;;;;;;;;5057064;28;20213;-75
2023/03/03 07:08:44;;;;;;;17.63;12.80;;;;;;;;;;5060257;28;20249;-75
2023/03/03 07:11:17;;;;;;;17.03;12.30;;;;;;;;;;5059773;28;20206;-75
2023/03/03 07:13:47;;;;;;;15.67;12.13;;;;;;;;;;5064453;28;20210;-75
2023/03/03 07:16:14;;;;;;;17.33;13.20;;;;;;;;;;5056970;28;20297;-75
2023/03/03 07:18:49;;;;;;;18.03;12.80;;;;;;;;;;5056862;28;20255;-74
2023/03/03 07:21:18;;;;;;;18.50;13.17;;;;;;;;;;5054067;28;20285;-75
2023/03/03 07:23:47;;;;;;;19.20;13.63;;;;;;;;;;5059731;28;20423;-75
2023/03/03 07:26:15;;;;;;;20.37;15.67;;;;;;;;;;5061034;28;20210;-75
2023/03/03 07:28:42;;;;;;;20.87;15.07;;;;;;;;;;5059486;28;20231;-75
2023/03/03 07:31:37;;;;;;;18.93;14.17;;;;;;;;;;5064958;28;20209;-75
2023/03/03 07:34:16;;;;;;;18.80;14.40;;;;;;;;;;5029252;28;20211;-74
2023/03/03 07:36:44;;;;;;;18.97;14.43;;;;;;;;;;5057043;28;20208;-75
2023/03/03 07:39:19;;;;;;;30.03;20.57;;;;;;;;;;5056065;28;20203;-75
2023/03/03 07:41:46;;;;;;;22.23;16.43;;;;;;;;;;5062282;28;20229;-75
2023/03/03 07:44:18;;;;;;;25.63;19.03;;;;;;;;;;5064367;28;20317;-75
2023/03/03 07:46:46;;;;;;;30.30;21.47;;;;;;;;;;5062902;28;20195;-75
2023/03/03 07:49:22;;;;;;;25.17;17.80;;;;;;;;;;5060337;28;20206;-75
2023/03/03 07:51:51;;;;;;;21.27;17.20;;;;;;;;;;5059430;28;20207;-75
2023/03/03 07:54:27;;;;;;;21.93;16.57;;;;;;;;;;5055021;28;20206;-75
2023/03/03 07:56:54;;;;;;;20.33;15.27;;;;;;;;;;5053584;28;20297;-75
2023/03/03 07:59:22;;;;;;;21.67;15.10;;;;;;;;;;5054187;28;20294;-75
2023/03/03 08:01:51;;;;;;;23.03;16.80;;;;;;;;;;5058508;28;20207;-75
2023/03/03 08:04:21;;;;;;;19.40;15.17;;;;;;;;;;5055270;28;20294;-75
2023/03/03 08:06:50;;;;;;;23.67;16.10;;;;;;;;;;5051677;28;20207;-75
2023/03/03 08:09:30;;;;;;;20.40;14.57;;;;;;;;;;5056423;28;20195;-75
2023/03/03 08:11:59;;;;;;;18.43;14.27;;;;;;;;;;5055176;28;20273;-75
2023/03/03 08:14:28;;;;;;;21.90;16.03;;;;;;;;;;5063589;28;20206;-75
2023/03/03 08:16:56;;;;;;;19.70;14.47;;;;;;;;;;5059327;28;20207;-74
2023/03/03 08:19:24;;;;;;;21.00;15.50;;;;;;;;;;5062389;28;20214;-75
2023/03/03 08:21:52;;;;;;;21.83;14.90;;;;;;;;;;5054411;28;20206;-75
2023/03/03 08:24:19;;;;;;;21.33;15.77;;;;;;;;;;5058192;28;20243;-75
2023/03/03 08:26:46;;;;;;;24.43;16.27;;;;;;;;;;5052237;28;20205;-75
2023/03/03 08:29:13;;;;;;;22.10;15.23;;;;;;;;;;5055046;28;20290;-75
2023/03/03 08:31:40;;;;;;;23.67;16.60;;;;;;;;;;5051811;28;20207;-75
2023/03/03 08:34:07;;;;;;;21.00;16.17;;;;;;;;;;5063882;28;20206;-75
2023/03/03 08:36:36;;;;;;;21.80;15.43;;;;;;;;;;5064397;28;20213;-75
2023/03/03 08:39:03;;;;;;;22.87;16.23;;;;;;;;;;5056518;28;20324;-75
2023/03/03 08:41:30;;;;;;;20.00;14.77;;;;;;;;;;5051336;28;20209;-75
2023/03/03 08:43:57;;;;;;;22.90;15.70;;;;;;;;;;5056638;28;20222;-75
2023/03/03 08:46:25;;;;;;;21.80;16.13;;;;;;;;;;5058758;28;20198;-75
2023/03/03 08:48:52;;;;;;;21.90;15.77;;;;;;;;;;5058596;28;20290;-75
2023/03/03 08:51:20;;;;;;;20.90;15.80;;;;;;;;;;5060466;28;20200;-75
2023/03/03 08:53:48;;;;;;;21.17;15.47;;;;;;;;;;5062504;28;20199;-75
2023/03/03 08:56:15;;;;;;;22.13;16.60;;;;;;;;;;5062105;28;20203;-75
2023/03/03 08:58:46;;;;;;;23.43;16.07;;;;;;;;;;5060431;28;20207;-75
2023/03/03 09:01:14;;;;;;;20.70;15.80;;;;;;;;;;5065330;28;20198;-75
2023/03/03 09:03:41;;;;;;;20.53;15.80;;;;;;;;;;5062563;28;20237;-75
2023/03/03 09:06:08;;;;;;;21.43;15.60;;;;;;;;;;5063249;28;20210;-75
2023/03/03 09:08:35;;;;;;;22.97;16.83;;;;;;;;;;5067868;28;20294;-75
2023/03/03 09:11:04;;;;;;;20.97;15.80;;;;;;;;;;5064572;28;20199;-75
2023/03/03 09:13:31;;;;;;;23.83;17.07;;;;;;;;;;5068040;28;20206;-75
2023/03/03 09:15:58;;;;;;;22.20;16.30;;;;;;;;;;5063656;28;20214;-75
2023/03/03 09:18:31;;;;;;;19.80;16.00;;;;;;;;;;5055627;28;20203;-75
2023/03/03 09:20:58;;;;;;;22.03;16.43;;;;;;;;;;5065707;28;20204;-75
2023/03/03 09:23:30;;;;;;;23.73;15.77;;;;;;;;;;5065930;28;20228;-75
2023/03/03 09:25:58;;;;;;;20.37;15.63;;;;;;;;;;5070933;28;20206;-75
2023/03/03 09:28:28;;;;;;;21.60;15.73;;;;;;;;;;5068146;28;20221;-75
2023/03/03 09:30:57;;;;;;;24.17;17.67;;;;;;;;;;5062293;28;20208;-76
2023/03/03 09:33:26;;;;;;;24.43;17.33;;;;;;;;;;5069623;28;20199;-74
2023/03/03 09:35:54;;;;;;;22.33;16.50;;;;;;;;;;5066301;28;20213;-75
2023/03/03 09:38:28;;;;;;;21.83;16.73;;;;;;;;;;5062446;28;20199;-74
2023/03/03 09:41:06;;;;;;;21.37;16.90;;;;;;;;;;5056231;28;20241;-74
2023/03/03 09:43:37;;;;;;;20.43;15.70;;;;;;;;;;5060101;28;20230;-74
2023/03/03 09:46:09;;;;;;;22.13;17.47;;;;;;;;;;5061258;28;20264;-75
2023/03/03 09:48:48;;;;;;;19.93;15.87;;;;;;;;;;5061022;28;20199;-74
2023/03/03 09:51:22;;;;;;;22.30;16.97;;;;;;;;;;5055428;28;20265;-75
2023/03/03 09:53:55;;;;;;;22.20;18.00;;;;;;;;;;5059999;28;20192;-75
2023/03/03 09:56:25;;;;;;;22.97;17.43;;;;;;;;;;5059355;28;20258;-75
2023/03/03 09:59:02;;;;;;;23.47;17.30;;;;;;;;;;5065790;28;20203;-75
2023/03/03 10:01:41;;;;;;;22.63;17.17;;;;;;;;;;5066019;28;20237;-75
2023/03/03 10:04:16;;;;;;;22.77;16.80;;;;;;;;;;5060453;28;20313;-74
2023/03/03 10:06:46;;;;;;;22.53;17.97;;;;;;;;;;5059849;28;20211;-74
2023/03/03 10:09:30;;;;;;;22.97;17.57;;;;;;;;;;5060180;28;20202;-75
2023/03/03 10:12:05;;;;;;;23.20;18.67;;;;;;;;;;5062474;28;20206;-75
2023/03/03 10:14:43;;;;;;;24.87;18.80;;;;;;;;;;5058670;28;20194;-75
2023/03/03 10:17:19;;;;;;;22.10;17.60;;;;;;;;;;5061247;28;20203;-75
2023/03/03 10:19:51;;;;;;;25.37;18.63;;;;;;;;;;5060055;28;20198;-75
2023/03/03 10:22:23;;;;;;;26.13;18.73;;;;;;;;;;5064257;28;20205;-75
2023/03/03 10:24:58;;;;;;;23.13;17.77;;;;;;;;;;5060803;28;20302;-74
2023/03/03 10:27:31;;;;;;;25.23;19.30;;;;;;;;;;5058623;28;20203;-75
2023/03/03 10:30:03;;;;;;;22.93;18.63;;;;;;;;;;5057100;28;20211;-74
2023/03/03 10:32:37;;;;;;;26.20;20.43;;;;;;;;;;5059831;28;20202;-75
2023/03/03 10:35:15;;;;;;;23.60;18.70;;;;;;;;;;5055722;28;20196;-75
2023/03/03 10:37:47;;;;;;;25.27;19.13;;;;;;;;;;5058358;28;20221;-75
2023/03/03 10:40:21;;;;;;;23.40;18.63;;;;;;;;;;5065435;28;20195;-74
2023/03/03 10:43:01;;;;;;;23.83;17.83;;;;;;;;;;5063142;28;20199;-72
2023/03/03 10:45:43;;;;;;;24.27;18.43;;;;;;;;;;5062146;28;20206;-73
2023/03/03 10:48:18;;;;;;;23.93;18.80;;;;;;;;;;5058355;28;20195;-73
2023/03/03 10:50:51;;;;;;;23.57;18.27;;;;;;;;;;5056511;28;20209;-72
2023/03/03 10:53:22;;;;;;;25.00;19.80;;;;;;;;;;5058209;28;20199;-73
2023/03/03 10:55:55;;;;;;;25.67;19.67;;;;;;;;;;5064415;28;20350;-72
2023/03/03 10:58:44;;;;;;;22.93;18.63;;;;;;;;;;5057886;28;20199;-72
2023/03/03 11:01:14;;;;;;;25.23;19.93;;;;;;;;;;5028027;28;20263;-73
2023/03/03 11:03:57;;;;;;;24.33;19.27;;;;;;;;;;5059973;28;20213;-73
2023/03/03 11:06:26;;;;;;;23.97;18.87;;;;;;;;;;5059909;28;20194;-72
2023/03/03 11:08:55;;;;;;;24.87;19.97;;;;;;;;;;5058745;28;20230;-74
2023/03/03 11:11:26;;;;;;;24.53;20.07;;;;;;;;;;5059625;28;20207;-74
2023/03/03 11:13:57;;;;;;;23.90;19.20;;;;;;;;;;5059175;28;20205;-74
2023/03/03 11:16:35;;;;;;;27.00;21.43;;;;;;;;;;5057412;28;20308;-72
2023/03/03 11:19:19;;;;;;;23.97;19.90;;;;;;;;;;5057212;28;20209;-72
2023/03/03 11:21:49;;;;;;;23.73;19.17;;;;;;;;;;5057712;28;20198;-71
2023/03/03 11:24:27;;;;;;;24.20;19.53;;;;;;;;;;5054953;28;20294;-73
2023/03/03 11:27:11;;;;;;;23.47;19.17;;;;;;;;;;5055431;28;20209;-72
2023/03/03 11:29:56;;;;;;;26.17;20.13;;;;;;;;;;5053338;28;20211;-73
2023/03/03 11:32:27;;;;;;;23.00;18.27;;;;;;;;;;5054483;28;20267;-72
2023/03/03 11:35:00;;;;;;;19.50;16.97;;;;;;;;;;5055741;28;20282;-72
2023/03/03 11:37:30;;;;;;;23.80;19.73;;;;;;;;;;5056307;28;20213;-73
2023/03/03 11:40:00;;;;;;;22.40;18.53;;;;;;;;;;5056323;28;20199;-72
2023/03/03 11:42:33;;;;;;;22.30;18.27;;;;;;;;;;5058214;28;20239;-72
2023/03/03 11:45:01;;;;;;;21.47;18.17;;;;;;;;;;5053851;28;20227;-73
2023/03/03 11:47:30;;;;;;;22.07;18.30;;;;;;;;;;5060236;28;20218;-72
2023/03/03 11:50:02;;;;;;;23.63;19.47;;;;;;;;;;5057658;28;20203;-72
2023/03/03 11:52:33;;;;;;;22.83;18.93;;;;;;;;;;5054019;28;20203;-72
2023/03/03 11:55:02;;;;;;;24.73;19.70;;;;;;;;;;5058099;28;20191;-72
2023/03/03 11:57:33;;;;;;;23.33;19.77;;;;;;;;;;5056193;28;20209;-73
2023/03/03 12:00:04;;;;;;;23.60;19.30;;;;;;;;;;5054885;28;20191;-72
2023/03/03 12:02:38;;;;;;;23.98;19.30;;;;;;;;;;5060527;28;20205;-70
2023/03/03 12:05:13;;;;;;;23.13;19.38;;;;;;;;;;5052832;28;20277;-71
2023/03/03 12:07:45;;;;;;;22.23;19.40;;;;;;;;;;5051829;28;20211;-72
2023/03/03 12:10:16;;;;;;;22.50;19.27;;;;;;;;;;5055093;28;20237;-72
2023/03/03 12:12:44;;;;;;;20.70;17.73;;;;;;;;;;5060270;28;20202;-72
2023/03/03 12:15:18;;;;;;;21.42;17.50;;;;;;;;;;5058933;28;20200;-73
2023/03/03 12:17:55;;;;;;;19.45;16.75;;;;;;;;;;5056914;28;20203;-73
2023/03/03 12:20:26;;;;;;;20.83;16.75;;;;;;;;;;5066993;28;20214;-71
2023/03/03 12:23:01;;;;;;;21.38;16.88;;;;;;;;;;5062927;28;20235;-72
2023/03/03 12:25:34;;;;;;;18.92;16.27;;;;;;;;;;5064711;28;20226;-72
2023/03/03 12:28:05;;;;;;;16.35;13.52;;;;;;;;;;5060887;28;20198;-71
2023/03/03 12:30:41;;;;;;;17.48;13.50;;;;;;;;;;5063301;28;20266;-72
2023/03/03 12:33:12;;;;;;;15.03;13.43;;;;;;;;;;5063406;28;20207;-72
2023/03/03 12:35:44;;;;;;;16.40;13.38;;;;;;;;;;5056161;28;20290;-72
2023/03/03 12:38:14;;;;;;;13.15;11.75;;;;;;;;;;5064467;28;20202;-71
2023/03/03 12:40:45;;;;;;;13.15;11.15;;;;;;;;;;5062035;28;20205;-73
2023/03/03 12:43:18;;;;;;;11.90;9.82;;;;;;;;;;5061803;28;20203;-71
2023/03/03 12:45:53;;;;;;;12.45;9.93;;;;;;;;;;5050688;28;20284;-70
2023/03/03 12:48:22;;;;;;;14.82;11.40;;;;;;;;;;5065859;28;20206;-69
2023/03/03 12:50:57;;;;;;;16.98;13.75;;;;;;;;;;5058521;28;20286;-70
2023/03/03 12:53:36;;;;;;;12.32;10.93;;;;;;;;;;5062252;28;20206;-70
2023/03/03 12:56:06;;;;;;;12.52;10.27;;;;;;;;;;5060049;28;20221;-70
2023/03/03 12:58:38;;;;;;;14.63;12.25;;;;;;;;;;5058084;28;20207;-71
2023/03/03 13:01:11;;;;;;;19.33;14.68;;;;;;;;;;5057958;28;20209;-70
2023/03/03 13:03:41;;;;;;;13.93;11.93;;;;;;;;;;5060209;28;20202;-70
2023/03/03 13:06:15;;;;;;;17.47;13.00;;;;;;;;;;5062308;28;20213;-71
2023/03/03 13:08:51;;;;;;;13.95;11.65;;;;;;;;;;5060541;28;20305;-71
2023/03/03 13:11:28;;;;;;;11.05;9.60;;;;;;;;;;5064144;28;20211;-71
2023/03/03 13:13:59;;;;;;;14.50;11.75;;;;;;;;;;5063411;28;20195;-71
2023/03/03 13:16:30;;;;;;;16.20;12.38;;;;;;;;;;5058241;28;20198;-72
2023/03/03 13:18:59;;;;;;;15.50;12.07;;;;;;;;;;5065679;28;20203;-71
2023/03/03 13:21:30;;;;;;;18.20;12.65;;;;;;;;;;5064429;28;20214;-71
2023/03/03 13:24:02;;;;;;;15.40;12.57;;;;;;;;;;5060363;28;20223;-71
2023/03/03 13:26:32;;;;;;;13.75;12.23;;;;;;;;;;5056015;28;20209;-72
2023/03/03 13:29:02;;;;;;;16.05;12.63;;;;;;;;;;5055013;28;20225;-72
2023/03/03 13:31:32;;;;;;;15.32;13.05;;;;;;;;;;5059943;28;20290;-72
2023/03/03 13:34:00;;;;;;;14.35;11.68;;;;;;;;;;5056774;28;20207;-72
2023/03/03 13:36:32;;;;;;;14.00;11.97;;;;;;;;;;5057058;28;20290;-72
2023/03/03 13:39:01;;;;;;;15.03;12.77;;;;;;;;;;5061152;28;20196;-72
2023/03/03 13:41:31;;;;;;;14.07;11.97;;;;;;;;;;5066142;28;20315;-72
2023/03/03 13:44:01;;;;;;;16.47;12.83;;;;;;;;;;5061595;28;20291;-72
2023/03/03 13:46:34;;;;;;;15.73;12.70;;;;;;;;;;5062684;28;20207;-72
2023/03/03 13:49:17;;;;;;;15.68;13.05;;;;;;;;;;5066607;28;20199;-70
2023/03/03 13:51:49;;;;;;;14.47;12.33;;;;;;;;;;5064138;28;20205;-71
2023/03/03 13:54:20;;;;;;;15.73;12.93;;;;;;;;;;5068261;28;20205;-72
2023/03/03 13:57:03;;;;;;;16.50;13.07;;;;;;;;;;5061003;28;20203;-72
2023/03/03 13:59:33;;;;;;;17.00;14.17;;;;;;;;;;5057468;28;20290;-71
2023/03/03 14:02:07;;;;;;;16.83;13.97;;;;;;;;;;5057197;28;20230;-71
2023/03/03 14:04:40;;;;;;;17.70;14.97;;;;;;;;;;5065647;28;20222;-71
2023/03/03 14:07:13;;;;;;;17.27;14.80;;;;;;;;;;5062028;28;20217;-70
2023/03/03 14:09:58;;;;;;;18.93;14.77;;;;;;;;;;5066359;28;20206;-71
2023/03/03 14:12:29;;;;;;;21.57;15.23;;;;;;;;;;5070490;28;20213;-71
2023/03/03 14:14:59;;;;;;;20.10;15.10;;;;;;;;;;5060206;28;20198;-72
2023/03/03 14:17:30;;;;;;;19.50;15.50;;;;;;;;;;5059416;28;20208;-71
2023/03/03 14:20:02;;;;;;;18.77;15.32;;;;;;;;;;5061671;28;20250;-72
2023/03/03 14:22:36;;;;;;;17.47;14.27;;;;;;;;;;5066373;28;20210;-72
2023/03/03 14:25:05;;;;;;;17.20;14.17;;;;;;;;;;5063005;28;20227;-72
2023/03/03 14:27:36;;;;;;;17.70;14.00;;;;;;;;;;5068444;28;20206;-72
2023/03/03 14:30:22;;;;;;;18.83;13.80;;;;;;;;;;5064312;28;20241;-72
2023/03/03 14:32:59;;;;;;;15.63;12.60;;;;;;;;;;5061012;28;20203;-72
2023/03/03 14:35:30;;;;;;;16.83;13.00;;;;;;;;;;5064208;28;20224;-73
2023/03/03 14:38:03;;;;;;;14.23;12.23;;;;;;;;;;5067244;28;20209;-71
2023/03/03 14:40:32;;;;;;;15.43;12.37;;;;;;;;;;5061248;28;20252;-71
2023/03/03 14:43:00;;;;;;;14.53;11.83;;;;;;;;;;5066421;28;20211;-71
2023/03/03 14:45:33;;;;;;;14.73;12.33;;;;;;;;;;5058366;28;20258;-71